createdAt,value
2023-04-23T00:00:15.961Z,97901.84
2023-04-23T00:03:27.274Z,97904.59
2023-04-23T00:06:33.958Z,97902.06
2023-04-23T00:09:42.348Z,97918.94
2023-04-23T00:12:51.540Z,97893.78
2023-04-23T00:15:58.800Z,97893.06
2023-04-23T00:19:04.254Z,97897.69
2023-04-23T00:22:10.706Z,97888.16
2023-04-23T00:25:16.234Z,97880.47
2023-04-23T00:28:25.484Z,97877.13
2023-04-23T00:31:30.966Z,97878.41
2023-04-23T00:34:37.477Z,97879.56
2023-04-23T00:37:43.074Z,97882.44
2023-04-23T00:40:49.832Z,97878.25
2023-04-23T00:43:59.687Z,97876.56
2023-04-23T00:47:07.560Z,97879.41
2023-04-23T00:50:13.422Z,97875.09
2023-04-23T00:53:19.743Z,97876.28
2023-04-23T00:56:26.365Z,97873.88
2023-04-23T00:59:35.741Z,97878.53
2023-04-23T01:02:42.773Z,97877.06
2023-04-23T01:05:50.357Z,97869.84
2023-04-23T01:08:56.027Z,97871.66
2023-04-23T01:12:05.689Z,97881.53
2023-04-23T01:15:14.986Z,97884.28
2023-04-23T01:18:22.181Z,97883.66
2023-04-23T01:21:29.401Z,97880.41
2023-04-23T01:24:39.436Z,97890.19
2023-04-23T01:27:45.239Z,97882.44
2023-04-23T01:30:52.971Z,97875.69
2023-04-23T01:34:00.588Z,97870.66
2023-04-23T01:37:08.631Z,97874.44
2023-04-23T01:40:17.266Z,97880.97
2023-04-23T01:43:25.524Z,97872.56
2023-04-23T01:46:31.604Z,97878.28
2023-04-23T01:49:38.009Z,97881.00
2023-04-23T01:52:45.104Z,97892.56
2023-04-23T01:55:55.603Z,97883.09
2023-04-23T01:59:02.182Z,97874.50
2023-04-23T02:02:10.958Z,97873.66
2023-04-23T02:05:22.193Z,97878.06
2023-04-23T02:08:27.917Z,97871.34
2023-04-23T02:11:37.464Z,97864.81
2023-04-23T02:14:43.102Z,97869.25
2023-04-23T02:17:51.469Z,97873.25
2023-04-23T02:21:00.049Z,97864.97
2023-04-23T02:24:07.336Z,97858.13
2023-04-23T02:27:15.627Z,97860.25
2023-04-23T02:30:23.189Z,97864.00
2023-04-23T02:33:29.019Z,97860.84
2023-04-23T02:36:35.793Z,97859.41
2023-04-23T02:39:41.869Z,97866.75
2023-04-23T02:42:51.709Z,97860.78
2023-04-23T02:45:57.164Z,97864.34
2023-04-23T02:49:03.560Z,97858.34
2023-04-23T02:52:09.369Z,97860.97
2023-04-23T02:55:15.921Z,97853.31
2023-04-23T02:58:24.803Z,97858.75
2023-04-23T03:01:33.900Z,97858.75
2023-04-23T03:04:40.656Z,97855.41
2023-04-23T03:07:47.197Z,97862.56
2023-04-23T03:10:52.974Z,97863.50
2023-04-23T03:14:02.736Z,97865.28
2023-04-23T03:17:08.216Z,97854.78
2023-04-23T03:20:15.777Z,97853.91
2023-04-23T03:23:21.305Z,97862.75
2023-04-23T03:26:28.179Z,97850.78
2023-04-23T03:29:36.507Z,97846.56
2023-04-23T03:32:42.884Z,97845.22
2023-04-23T03:35:50.409Z,97848.66
2023-04-23T03:39:02.626Z,97850.88
2023-04-23T03:42:17.814Z,97851.59
2023-04-23T03:45:27.434Z,97849.19
2023-04-23T03:48:33.885Z,97849.31
2023-04-23T03:51:44.132Z,97853.69
2023-04-23T03:54:49.870Z,97855.59
2023-04-23T03:57:57.504Z,97850.50
2023-04-23T04:01:07.580Z,97823.41
2023-04-23T04:04:14.468Z,97847.16
2023-04-23T04:07:20.062Z,97855.75
2023-04-23T04:10:26.571Z,97856.31
2023-04-23T04:13:32.027Z,97864.00
2023-04-23T04:16:41.089Z,97861.25
2023-04-23T04:19:47.027Z,97859.28
2023-04-23T04:22:53.304Z,97854.56
2023-04-23T04:26:00.170Z,97861.28
2023-04-23T04:29:06.957Z,97864.41
2023-04-23T04:32:15.567Z,97857.31
2023-04-23T04:35:21.969Z,97862.13
2023-04-23T04:38:30.711Z,97855.63
2023-04-23T04:41:37.190Z,97864.88
2023-04-23T04:44:43.999Z,97862.56
2023-04-23T04:47:53.155Z,97855.91
2023-04-23T04:50:58.955Z,97859.81
2023-04-23T04:54:05.366Z,97850.78
2023-04-23T04:57:11.248Z,97865.38
2023-04-23T05:00:29.860Z,97862.91
2023-04-23T05:03:39.553Z,97869.19
2023-04-23T05:06:46.046Z,97871.06
2023-04-23T05:09:51.513Z,97870.22
2023-04-23T05:12:59.929Z,97869.56
2023-04-23T05:16:05.401Z,97863.03
2023-04-23T05:19:14.487Z,97848.91
2023-04-23T05:22:20.149Z,97866.19
2023-04-23T05:25:26.535Z,97863.41
2023-04-23T05:28:32.047Z,97868.72
2023-04-23T05:31:38.582Z,97860.75
2023-04-23T05:34:46.797Z,97865.00
2023-04-23T05:37:53.098Z,97859.72
2023-04-23T05:41:01.857Z,97866.59
2023-04-23T05:44:08.450Z,97858.63
2023-04-23T05:47:17.075Z,97865.94
2023-04-23T05:50:27.057Z,97868.44
2023-04-23T05:53:33.309Z,97864.66
2023-04-23T05:56:39.885Z,97855.63
2023-04-23T05:59:45.347Z,97860.75
2023-04-23T06:02:52.308Z,97863.41
2023-04-23T06:06:00.961Z,97864.94
2023-04-23T06:09:07.670Z,97863.13
2023-04-23T06:12:15.032Z,97859.38
2023-04-23T06:15:27.329Z,97858.97
2023-04-23T06:18:32.946Z,97855.19
2023-04-23T06:21:42.449Z,97861.84
2023-04-23T06:24:47.880Z,97860.44
2023-04-23T06:27:54.150Z,97859.84
2023-04-23T06:31:04.148Z,97856.53
2023-04-23T06:34:10.557Z,97860.34
2023-04-23T06:37:19.011Z,97852.50
2023-04-23T06:40:25.350Z,97858.16
2023-04-23T06:43:31.093Z,97849.56
2023-04-23T06:47:27.582Z,97849.38
2023-04-23T06:50:33.163Z,97849.38
2023-04-23T06:53:42.711Z,97844.38
2023-04-23T06:56:48.248Z,97843.69
2023-04-23T06:59:55.214Z,97841.28
2023-04-23T07:03:07.367Z,97830.97
2023-04-23T07:06:14.027Z,97835.53
2023-04-23T07:09:23.468Z,97831.75
2023-04-23T07:12:29.986Z,97831.97
2023-04-23T07:15:35.934Z,97836.09
2023-04-23T07:18:42.512Z,97832.94
2023-04-23T07:21:48.422Z,97834.44
2023-04-23T07:24:57.804Z,97827.00
2023-04-23T07:28:03.437Z,97826.09
2023-04-23T07:31:10.796Z,97822.28
2023-04-23T07:34:16.550Z,97833.56
2023-04-23T07:37:22.855Z,97825.69
2023-04-23T07:40:31.088Z,97825.75
2023-04-23T07:43:37.802Z,97825.84
2023-04-23T07:46:43.258Z,97824.91
2023-04-23T07:49:49.695Z,97821.50
2023-04-23T07:52:55.524Z,97812.25
2023-04-23T07:56:04.771Z,97814.00
2023-04-23T07:59:10.264Z,97816.19
2023-04-23T08:02:18.903Z,97817.38
2023-04-23T08:05:24.675Z,97807.28
2023-04-23T08:08:31.134Z,97807.50
2023-04-23T08:11:39.435Z,97811.66
2023-04-23T08:14:47.822Z,97805.38
2023-04-23T08:17:57.701Z,97812.38
2023-04-23T08:21:05.133Z,97804.06
2023-04-23T08:24:11.038Z,97804.91
2023-04-23T08:27:20.350Z,97801.75
2023-04-23T08:30:25.970Z,97796.13
2023-04-23T08:33:32.706Z,97789.34
2023-04-23T08:36:38.212Z,97787.22
2023-04-23T08:39:44.783Z,97795.72
2023-04-23T08:43:00.910Z,97740.88
2023-04-23T08:46:08.006Z,97788.63
2023-04-23T08:49:19.599Z,97735.63
2023-04-23T08:52:29.153Z,97778.19
2023-04-23T08:55:38.413Z,97777.13
2023-04-23T08:58:50.575Z,97772.50
2023-04-23T09:01:57.998Z,97771.53
2023-04-23T09:05:07.131Z,97769.56
2023-04-23T09:08:14.492Z,97772.44
2023-04-23T09:11:22.595Z,97764.44
2023-04-23T09:14:30.947Z,97768.63
2023-04-23T09:17:40.582Z,97760.28
2023-04-23T09:20:48.031Z,97758.97
2023-04-23T09:23:55.280Z,97766.97
2023-04-23T09:27:03.161Z,97763.09
2023-04-23T09:30:15.655Z,97752.28
2023-04-23T09:33:21.309Z,97744.28
2023-04-23T09:36:28.371Z,97749.97
2023-04-23T09:39:36.202Z,97741.84
2023-04-23T09:42:42.624Z,97745.03
2023-04-23T09:45:59.713Z,97742.69
2023-04-23T09:49:08.042Z,97750.72
2023-04-23T09:52:13.639Z,97734.06
2023-04-23T09:55:36.043Z,97736.72
2023-04-23T09:58:41.656Z,97735.38
2023-04-23T10:01:52.294Z,97727.72
2023-04-23T10:05:06.921Z,97725.75
2023-04-23T10:08:26.296Z,97722.72
2023-04-23T10:11:33.210Z,97707.56
2023-04-23T10:14:43.040Z,97710.06
2023-04-23T10:17:52.079Z,97708.72
2023-04-23T10:20:59.208Z,97703.72
2023-04-23T10:24:06.884Z,97704.03
2023-04-23T10:30:29.849Z,97699.72
2023-04-23T10:33:49.362Z,97697.72
2023-04-23T10:37:04.905Z,97695.56
2023-04-23T10:40:16.548Z,97685.03
2023-04-23T10:43:23.692Z,97677.34
2023-04-23T10:46:36.399Z,97640.38
2023-04-23T10:49:48.129Z,97678.69
2023-04-23T10:52:57.830Z,97676.34
2023-04-23T10:56:11.166Z,97679.47
2023-04-23T10:59:27.222Z,97678.44
2023-04-23T11:02:47.988Z,97642.47
2023-04-23T11:05:58.129Z,97680.88
2023-04-23T11:09:23.669Z,97663.78
2023-04-23T11:12:39.142Z,97667.38
2023-04-23T11:15:45.823Z,97661.97
2023-04-23T11:19:03.200Z,97656.28
2023-04-23T11:22:19.648Z,97665.69
2023-04-23T11:25:29.316Z,97669.47
2023-04-23T11:28:41.744Z,97666.56
2023-04-23T11:32:01.848Z,97658.41
2023-04-23T11:35:13.558Z,97661.50
2023-04-23T11:38:24.307Z,97645.22
2023-04-23T11:41:30.496Z,97639.78
2023-04-23T11:44:37.061Z,97643.41
2023-04-23T11:47:42.600Z,97644.69
2023-04-23T11:50:49.818Z,97646.28
2023-04-23T11:53:58.399Z,97642.72
2023-04-23T11:57:07.191Z,97643.53
2023-04-23T12:00:22.024Z,97636.97
2023-04-23T12:03:30.760Z,97638.44
2023-04-23T12:06:36.572Z,97632.88
2023-04-23T12:09:49.537Z,97639.66
2023-04-23T12:12:56.027Z,97640.91
2023-04-23T12:16:05.394Z,97634.69
2023-04-23T12:19:19.106Z,97635.84
2023-04-23T12:22:31.486Z,97631.38
2023-04-23T12:25:40.741Z,97618.91
2023-04-23T12:28:50.950Z,97614.13
2023-04-23T12:32:01.717Z,97626.19
2023-04-23T12:35:10.344Z,97620.66
2023-04-23T12:38:26.949Z,97611.38
2023-04-23T12:41:36.137Z,97605.06
2023-04-23T12:44:42.369Z,97613.56
2023-04-23T12:47:48.784Z,97608.00
2023-04-23T12:50:54.386Z,97594.97
2023-04-23T12:54:01.061Z,97603.78
2023-04-23T12:57:15.073Z,97603.88
2023-04-23T13:00:21.727Z,97599.66
2023-04-23T13:03:27.953Z,97591.72
2023-04-23T13:06:34.925Z,97597.50
2023-04-23T13:09:40.652Z,97589.56
2023-04-23T13:12:50.092Z,97595.31
2023-04-23T13:15:55.959Z,97595.56
2023-04-23T13:19:04.161Z,97586.38
2023-04-23T13:22:09.682Z,97578.69
2023-04-23T13:25:16.044Z,97573.47
2023-04-23T13:28:24.410Z,97565.75
2023-04-23T13:31:31.879Z,97562.69
2023-04-23T13:34:37.441Z,97564.53
2023-04-23T13:37:44.255Z,97560.41
2023-04-23T13:40:49.770Z,97559.00
2023-04-23T13:43:59.121Z,97559.25
2023-04-23T13:47:04.787Z,97556.44
2023-04-23T13:50:12.190Z,97538.41
2023-04-23T13:53:17.922Z,97543.09
2023-04-23T13:56:24.568Z,97543.09
2023-04-23T13:59:33.262Z,97538.03
2023-04-23T14:02:39.712Z,97534.31
2023-04-23T14:05:45.267Z,97530.63
2023-04-23T14:08:51.680Z,97534.72
2023-04-23T14:11:57.287Z,97532.56
2023-04-23T14:15:06.783Z,97532.94
2023-04-23T14:18:12.415Z,97534.63
2023-04-23T14:21:18.748Z,97529.19
2023-04-23T14:24:31.825Z,97535.63
2023-04-23T14:27:47.711Z,97531.94
2023-04-23T14:31:00.142Z,97532.13
2023-04-23T14:34:06.656Z,97522.09
2023-04-23T14:37:12.877Z,97521.81
2023-04-23T14:40:20.091Z,97521.50
2023-04-23T14:43:26.007Z,97515.19
2023-04-23T14:46:35.729Z,97510.50
2023-04-23T14:49:42.240Z,97516.50
2023-04-23T14:52:52.437Z,97512.41
2023-04-23T14:55:58.097Z,97521.03
2023-04-23T14:59:05.776Z,97515.16
2023-04-23T15:02:14.640Z,97520.81
2023-04-23T15:05:21.446Z,97513.50
2023-04-23T15:08:26.925Z,97501.66
2023-04-23T15:11:33.706Z,97509.28
2023-04-23T15:14:41.509Z,97518.94
2023-04-23T15:17:51.295Z,97502.34
2023-04-23T15:20:57.501Z,97506.81
2023-04-23T15:24:04.332Z,97518.03
2023-04-23T15:27:15.227Z,97510.50
2023-04-23T15:30:23.159Z,97510.38
2023-04-23T15:33:33.540Z,97515.34
2023-04-23T15:36:40.442Z,97507.22
2023-04-23T15:39:46.066Z,97501.16
2023-04-23T15:42:53.038Z,97511.69
2023-04-23T15:45:59.198Z,97504.47
2023-04-23T15:49:08.539Z,97505.88
2023-04-23T15:52:14.968Z,97505.19
2023-04-23T15:55:22.208Z,97499.66
2023-04-23T15:58:27.938Z,97498.25
2023-04-23T16:01:34.387Z,97494.94
2023-04-23T16:04:43.724Z,97498.13
2023-04-23T16:07:50.116Z,97487.38
2023-04-23T16:10:57.283Z,97486.72
2023-04-23T16:14:03.676Z,97479.63
2023-04-23T16:17:09.212Z,97471.78
2023-04-23T16:20:18.456Z,97477.31
2023-04-23T16:23:23.963Z,97473.41
2023-04-23T16:26:31.621Z,97461.03
2023-04-23T16:29:37.236Z,97463.31
2023-04-23T16:32:44.001Z,97462.69
2023-04-23T16:35:52.958Z,97477.19
2023-04-23T16:38:59.317Z,97470.31
2023-04-23T16:42:04.791Z,97469.66
2023-04-23T16:45:12.181Z,97460.78
2023-04-23T16:48:20.161Z,97461.00
2023-04-23T16:51:30.029Z,97457.22
2023-04-23T16:54:36.429Z,97460.03
2023-04-23T16:57:42.989Z,97458.13
2023-04-23T17:00:49.194Z,97460.75
2023-04-23T17:03:56.021Z,97452.72
2023-04-23T17:07:04.929Z,97459.38
2023-04-23T17:10:12.856Z,97459.63
2023-04-23T17:13:18.331Z,97465.81
2023-04-23T17:16:25.478Z,97463.44
2023-04-23T17:19:31.041Z,97467.22
2023-04-23T17:22:40.665Z,97453.91
2023-04-23T17:25:47.076Z,97462.69
2023-04-23T17:28:53.782Z,97417.66
2023-04-23T17:31:59.632Z,97468.44
2023-04-23T17:35:10.063Z,97469.34
2023-04-23T17:38:20.799Z,97478.00
2023-04-23T17:41:27.296Z,97476.63
2023-04-23T17:44:32.932Z,97481.44
2023-04-23T17:47:41.106Z,97497.28
2023-04-23T17:50:48.663Z,97512.16
2023-04-23T17:53:58.876Z,97504.63
2023-04-23T17:57:07.077Z,97502.56
2023-04-23T18:00:16.145Z,97489.00
2023-04-23T18:03:22.424Z,97491.34
2023-04-23T18:06:29.271Z,97496.31
2023-04-23T18:09:37.517Z,97494.81
2023-04-23T18:12:44.015Z,97501.94
2023-04-23T18:15:50.365Z,97506.28
2023-04-23T18:18:56.925Z,97511.75
2023-04-23T18:22:03.922Z,97512.91
2023-04-23T18:25:13.918Z,97519.25
2023-04-23T18:28:19.364Z,97517.22
2023-04-23T18:31:25.887Z,97521.84
2023-04-23T18:34:35.757Z,97525.16
2023-04-23T18:37:50.391Z,97508.16
2023-04-23T18:40:59.447Z,97507.81
2023-04-23T18:44:05.750Z,97506.16
2023-04-23T18:47:11.272Z,97504.41
2023-04-23T18:50:40.950Z,97499.06
2023-04-23T18:53:46.585Z,97506.38
2023-04-23T18:56:56.307Z,97499.06
2023-04-23T19:00:01.992Z,97511.84
2023-04-23T19:03:23.604Z,97509.38
2023-04-23T19:06:32.653Z,97508.75
2023-04-23T19:09:39.030Z,97500.97
2023-04-23T19:12:47.502Z,97503.31
2023-04-23T19:15:54.139Z,97500.59
2023-04-23T19:19:00.117Z,97497.75
2023-04-23T19:22:06.680Z,97505.41
2023-04-23T19:25:13.360Z,97504.09
2023-04-23T19:28:24.772Z,97506.44
2023-04-23T19:31:31.909Z,97501.13
2023-04-23T19:34:38.257Z,97503.63
2023-04-23T19:37:43.988Z,97499.81
2023-04-23T19:40:51.435Z,97500.66
2023-04-23T19:43:59.723Z,97503.50
2023-04-23T19:47:06.423Z,97503.63
2023-04-23T19:50:14.214Z,97499.41
2023-04-23T19:53:22.158Z,97494.09
2023-04-23T19:56:27.689Z,97489.09
2023-04-23T19:59:37.409Z,97481.56
2023-04-23T20:02:43.650Z,97484.91
2023-04-23T20:05:50.352Z,97484.00
2023-04-23T20:09:08.491Z,97482.16
2023-04-23T20:12:16.115Z,97477.81
2023-04-23T20:15:26.025Z,97479.28
2023-04-23T20:18:34.622Z,97483.69
2023-04-23T20:21:41.400Z,97481.97
2023-04-23T20:24:49.585Z,97481.72
2023-04-23T20:27:55.707Z,97478.03
2023-04-23T20:31:05.073Z,97476.00
2023-04-23T20:34:11.279Z,97475.81
2023-04-23T20:37:21.755Z,97473.91
2023-04-23T20:40:28.086Z,97477.66
2023-04-23T20:43:39.021Z,97478.41
2023-04-23T20:46:49.753Z,97480.00
2023-04-23T20:49:56.158Z,97472.50
2023-04-23T20:53:01.771Z,97473.97
2023-04-23T20:56:08.477Z,97476.41
2023-04-23T20:59:14.005Z,97479.66
2023-04-23T21:02:23.584Z,97472.41
2023-04-23T21:05:29.443Z,97466.75
2023-04-23T21:08:36.221Z,97474.97
2023-04-23T21:11:42.523Z,97469.97
2023-04-23T21:14:49.190Z,97464.13
2023-04-23T21:17:57.501Z,97474.22
2023-04-23T21:21:04.565Z,97476.50
2023-04-23T21:24:10.505Z,97471.78
2023-04-23T21:27:22.050Z,97457.47
2023-04-23T21:30:49.358Z,97467.41
2023-04-23T21:33:58.501Z,97467.69
2023-04-23T21:37:04.026Z,97461.72
2023-04-23T21:40:12.618Z,97459.06
2023-04-23T21:43:19.568Z,97453.38
2023-04-23T21:46:27.056Z,97452.97
2023-04-23T21:49:36.072Z,97454.94
2023-04-23T21:52:46.100Z,97451.59
2023-04-23T21:55:52.039Z,97446.59
2023-04-23T21:58:58.370Z,97451.88
2023-04-23T22:02:04.244Z,97444.09
2023-04-23T22:05:13.650Z,97437.97
2023-04-23T22:08:19.644Z,97438.25
2023-04-23T22:11:26.420Z,97442.19
2023-04-23T22:14:32.509Z,97442.78
2023-04-23T22:17:39.494Z,97439.75
2023-04-23T22:20:51.080Z,97440.31
2023-04-23T22:23:57.600Z,97444.22
2023-04-23T22:27:03.493Z,97431.44
2023-04-23T22:30:13.256Z,97433.69
2023-04-23T22:33:18.707Z,97436.06
2023-04-23T22:36:28.378Z,97430.38
2023-04-23T22:39:33.983Z,97430.94
2023-04-23T22:42:40.601Z,97431.25
2023-04-23T22:45:46.565Z,97428.50
2023-04-23T22:48:53.820Z,97423.50
2023-04-23T22:52:02.601Z,97416.28
2023-04-23T22:55:10.960Z,97418.09
2023-04-23T22:58:16.597Z,97419.31
2023-04-23T23:01:23.095Z,97416.00
2023-04-23T23:04:28.576Z,97412.66
2023-04-23T23:07:37.661Z,97408.50
2023-04-23T23:10:43.236Z,97416.88
2023-04-23T23:13:49.554Z,97407.41
2023-04-23T23:16:55.890Z,97402.69
2023-04-23T23:20:02.237Z,97396.31
2023-04-23T23:23:10.524Z,97396.88
2023-04-23T23:26:16.919Z,97395.50
2023-04-23T23:29:22.356Z,97396.63
2023-04-23T23:32:28.781Z,97387.13
2023-04-23T23:35:34.413Z,97388.09
2023-04-23T23:38:43.503Z,97388.94
2023-04-23T23:41:49.343Z,97389.63
2023-04-23T23:44:55.716Z,97395.63
2023-04-23T23:48:02.509Z,97392.03
2023-04-23T23:51:09.091Z,97385.75
2023-04-23T23:54:17.898Z,97375.31
2023-04-23T23:57:24.462Z,97381.44
